createdAt,value
2019-03-17T00:01:57.167Z,0.60
2019-03-17T00:04:15.683Z,0.47
2019-03-17T00:06:42.101Z,0.47
2019-03-17T00:09:08.653Z,0.50
2019-03-17T00:11:34.813Z,0.50
2019-03-17T00:14:00.971Z,0.47
2019-03-17T00:16:27.474Z,0.50
2019-03-17T00:18:53.723Z,0.53
2019-03-17T00:21:19.848Z,0.50
2019-03-17T00:23:46.011Z,0.50
2019-03-17T00:26:12.184Z,0.60
2019-03-17T00:28:38.352Z,0.60
2019-03-17T00:31:04.585Z,0.50
2019-03-17T00:33:30.746Z,0.50
2019-03-17T00:35:56.936Z,0.53
2019-03-17T00:38:23.093Z,3.80
2019-03-17T00:40:49.265Z,1.83
2019-03-17T00:43:15.420Z,1.03
2019-03-17T00:45:41.601Z,0.67
2019-03-17T00:48:07.774Z,0.70
2019-03-17T00:50:33.984Z,0.60
2019-03-17T00:53:00.139Z,0.70
2019-03-17T00:55:32.809Z,0.50
2019-03-17T00:57:59.780Z,0.50
2019-03-17T01:00:26.090Z,0.50
2019-03-17T01:02:52.396Z,0.60
2019-03-17T01:05:19.006Z,0.80
2019-03-17T01:07:45.247Z,0.50
2019-03-17T01:10:12.917Z,0.40
2019-03-17T01:12:39.059Z,0.73
2019-03-17T01:15:06.435Z,0.73
2019-03-17T01:17:32.564Z,0.60
2019-03-17T01:19:58.739Z,0.73
2019-03-17T01:22:24.899Z,0.87
2019-03-17T01:24:51.140Z,0.80
2019-03-17T01:27:17.333Z,0.73
2019-03-17T01:29:43.533Z,0.70
2019-03-17T01:32:09.661Z,0.70
2019-03-17T01:34:36.286Z,0.70
2019-03-17T01:37:02.443Z,0.50
2019-03-17T01:39:28.641Z,0.70
2019-03-17T01:41:55.087Z,0.60
2019-03-17T01:44:21.859Z,0.60
2019-03-17T01:46:48.006Z,0.53
2019-03-17T01:49:14.205Z,0.60
2019-03-17T01:51:40.399Z,0.50
2019-03-17T01:54:06.604Z,0.47
2019-03-17T01:56:32.820Z,0.60
2019-03-17T01:58:59.247Z,0.53
2019-03-17T02:01:25.442Z,0.60
2019-03-17T02:03:51.604Z,0.47
2019-03-17T02:06:17.780Z,0.53
2019-03-17T02:08:43.930Z,0.50
2019-03-17T02:11:10.100Z,0.60
2019-03-17T02:13:36.275Z,0.50
2019-03-17T02:16:02.532Z,0.50
2019-03-17T02:18:28.681Z,0.60
2019-03-17T02:20:55.260Z,0.50
2019-03-17T02:23:21.390Z,0.60
2019-03-17T02:25:47.582Z,0.60
2019-03-17T02:28:13.746Z,0.53
2019-03-17T02:30:40.074Z,0.60
2019-03-17T02:33:06.232Z,0.67
2019-03-17T02:35:39.581Z,0.50
2019-03-17T02:38:00.464Z,0.50
2019-03-17T02:40:26.609Z,0.57
2019-03-17T02:42:52.749Z,0.60
2019-03-17T02:45:18.933Z,0.70
2019-03-17T02:47:45.079Z,0.90
2019-03-17T02:50:11.335Z,0.53
2019-03-17T02:52:37.494Z,0.57
2019-03-17T02:55:07.767Z,0.60
2019-03-17T02:57:33.913Z,0.50
2019-03-17T03:00:00.050Z,0.43
2019-03-17T03:02:26.209Z,0.50
2019-03-17T03:04:52.375Z,0.40
2019-03-17T03:07:18.567Z,0.60
2019-03-17T03:09:44.746Z,0.50
2019-03-17T03:12:10.932Z,0.50
2019-03-17T03:14:37.152Z,0.50
2019-03-17T03:17:03.335Z,0.60
2019-03-17T03:19:31.102Z,0.50
2019-03-17T03:21:57.283Z,0.50
2019-03-17T03:24:23.434Z,0.50
2019-03-17T03:26:49.626Z,0.60
2019-03-17T03:29:15.773Z,0.70
2019-03-17T03:31:42.149Z,0.60
2019-03-17T03:34:08.306Z,0.53
2019-03-17T03:36:34.509Z,0.50
2019-03-17T03:39:00.658Z,0.70
2019-03-17T03:41:27.078Z,0.47
2019-03-17T03:43:53.232Z,0.60
2019-03-17T03:46:20.275Z,0.60
2019-03-17T03:48:46.427Z,0.40
2019-03-17T03:51:12.610Z,0.53
2019-03-17T03:53:38.750Z,0.40
2019-03-17T03:56:04.900Z,0.60
2019-03-17T03:58:31.062Z,0.50
2019-03-17T04:00:57.298Z,0.50
2019-03-17T04:03:23.443Z,0.53
2019-03-17T04:05:49.663Z,0.60
2019-03-17T04:08:15.864Z,0.60
2019-03-17T04:10:42.092Z,0.50
2019-03-17T04:13:13.788Z,0.50
2019-03-17T04:15:39.991Z,0.63
2019-03-17T04:18:06.219Z,0.70
2019-03-17T04:20:32.341Z,0.67
2019-03-17T04:22:58.510Z,0.70
2019-03-17T04:25:24.672Z,0.60
2019-03-17T04:27:50.833Z,0.57
2019-03-17T04:30:17.031Z,0.63
2019-03-17T04:32:43.186Z,0.80
2019-03-17T04:35:09.317Z,0.60
2019-03-17T04:37:35.527Z,0.53
2019-03-17T04:40:02.094Z,0.50
2019-03-17T04:42:28.266Z,0.70
2019-03-17T04:44:54.403Z,0.67
2019-03-17T04:47:20.576Z,0.60
2019-03-17T04:49:46.716Z,0.80
2019-03-17T04:52:12.886Z,0.60
2019-03-17T04:54:39.055Z,0.70
2019-03-17T04:57:05.232Z,0.70
2019-03-17T04:59:31.376Z,0.80
2019-03-17T05:01:57.593Z,0.80
2019-03-17T05:04:23.729Z,0.73
2019-03-17T05:06:52.833Z,0.80
2019-03-17T05:09:18.242Z,0.77
2019-03-17T05:11:44.770Z,0.77
2019-03-17T05:14:10.907Z,0.87
2019-03-17T05:16:37.061Z,0.70
2019-03-17T05:19:03.574Z,0.70
2019-03-17T05:21:29.728Z,0.80
2019-03-17T05:23:55.938Z,0.83
2019-03-17T05:26:22.077Z,0.90
2019-03-17T05:28:48.623Z,0.90
2019-03-17T05:31:14.880Z,1.10
2019-03-17T05:33:41.036Z,0.80
2019-03-17T05:36:07.186Z,1.00
2019-03-17T05:38:33.371Z,1.17
2019-03-17T05:40:59.554Z,1.00
2019-03-17T05:43:26.034Z,1.20
2019-03-17T05:45:52.491Z,1.10
2019-03-17T05:48:18.665Z,1.30
2019-03-17T05:50:44.841Z,1.23
2019-03-17T05:53:17.422Z,1.10
2019-03-17T05:55:43.582Z,1.40
2019-03-17T05:58:09.790Z,1.30
2019-03-17T06:00:36.321Z,1.50
2019-03-17T06:03:02.539Z,1.60
2019-03-17T06:05:28.677Z,1.40
2019-03-17T06:07:54.850Z,1.77
2019-03-17T06:10:21.387Z,1.90
2019-03-17T06:12:47.560Z,1.93
2019-03-17T06:15:13.695Z,2.00
2019-03-17T06:17:39.887Z,1.87
2019-03-17T06:20:10.563Z,1.70
2019-03-17T06:22:36.794Z,1.60
2019-03-17T06:25:06.338Z,2.00
2019-03-17T06:27:32.487Z,1.70
2019-03-17T06:29:58.691Z,1.90
2019-03-17T06:32:24.952Z,1.83
2019-03-17T06:34:51.110Z,1.90
2019-03-17T06:37:17.558Z,1.73
2019-03-17T06:39:43.723Z,1.80
2019-03-17T06:42:09.888Z,1.73
2019-03-17T06:44:36.078Z,1.97
2019-03-17T06:47:02.267Z,1.53
2019-03-17T06:49:28.434Z,1.60
2019-03-17T06:51:58.838Z,1.93
2019-03-17T06:54:22.643Z,1.80
2019-03-17T06:56:48.797Z,1.60
2019-03-17T06:59:17.460Z,1.83
2019-03-17T07:01:43.063Z,2.00
2019-03-17T07:04:09.223Z,1.60
2019-03-17T07:06:35.373Z,1.60
2019-03-17T07:09:01.681Z,1.60
2019-03-17T07:11:29.429Z,1.47
2019-03-17T07:13:55.591Z,1.40
2019-03-17T07:16:21.818Z,1.50
2019-03-17T07:18:47.969Z,1.60
2019-03-17T07:21:14.111Z,1.70
2019-03-17T07:23:40.295Z,1.20
2019-03-17T07:26:07.046Z,1.23
2019-03-17T07:28:33.245Z,1.17
2019-03-17T07:30:59.452Z,1.30
2019-03-17T07:33:25.624Z,1.40
2019-03-17T07:35:51.770Z,1.20
2019-03-17T07:38:17.950Z,1.37
2019-03-17T07:40:44.098Z,1.30
2019-03-17T07:43:10.274Z,1.27
2019-03-17T07:45:36.834Z,1.40
2019-03-17T07:48:03.010Z,1.13
2019-03-17T07:50:29.214Z,0.93
2019-03-17T07:52:55.382Z,1.00
2019-03-17T07:55:21.554Z,1.07
2019-03-17T07:57:47.692Z,1.10
2019-03-17T08:00:14.267Z,0.90
2019-03-17T08:02:40.464Z,1.27
2019-03-17T08:05:11.357Z,1.10
2019-03-17T08:07:37.676Z,1.07
2019-03-17T08:10:12.008Z,0.70
2019-03-17T08:12:39.325Z,0.77
2019-03-17T08:15:10.244Z,0.50
2019-03-17T08:17:36.552Z,0.60
2019-03-17T08:20:05.276Z,0.43
2019-03-17T08:22:31.434Z,0.30
2019-03-17T08:24:57.793Z,0.50
2019-03-17T08:27:23.970Z,0.40
2019-03-17T08:29:50.172Z,0.50
2019-03-17T08:32:16.377Z,0.47
2019-03-17T08:34:42.564Z,0.40
2019-03-17T08:37:08.978Z,0.60
2019-03-17T08:39:35.136Z,0.50
2019-03-17T08:42:01.292Z,0.50
2019-03-17T08:44:27.532Z,0.57
2019-03-17T08:46:53.663Z,0.50
2019-03-17T08:49:19.830Z,0.60
2019-03-17T08:51:46.024Z,0.40
2019-03-17T08:54:12.195Z,0.30
2019-03-17T08:56:38.373Z,0.47
2019-03-17T08:59:04.525Z,0.63
2019-03-17T09:01:30.714Z,0.60
2019-03-17T09:03:56.906Z,0.60
2019-03-17T09:06:23.078Z,0.50
2019-03-17T09:08:49.228Z,0.70
2019-03-17T09:11:15.388Z,0.60
2019-03-17T09:13:41.535Z,0.70
2019-03-17T09:16:07.734Z,0.60
2019-03-17T09:18:33.879Z,0.50
2019-03-17T09:21:00.051Z,0.50
2019-03-17T09:23:26.204Z,0.50
2019-03-17T09:25:52.386Z,0.50
2019-03-17T09:28:18.539Z,0.60
2019-03-17T09:30:44.790Z,0.60
2019-03-17T09:33:10.937Z,0.50
2019-03-17T09:35:37.180Z,0.60
2019-03-17T09:38:03.675Z,0.57
2019-03-17T09:40:29.950Z,0.40
2019-03-17T09:42:56.222Z,0.60
2019-03-17T09:45:22.706Z,0.70
2019-03-17T09:47:48.857Z,0.60
2019-03-17T09:50:19.100Z,0.63
2019-03-17T09:52:45.595Z,0.53
2019-03-17T09:55:11.785Z,0.70
2019-03-17T09:57:37.944Z,0.60
2019-03-17T10:00:14.933Z,0.53
2019-03-17T10:02:41.080Z,0.50
2019-03-17T10:05:08.778Z,0.60
2019-03-17T10:07:35.294Z,0.53
2019-03-17T10:10:02.171Z,0.70
2019-03-17T10:12:28.694Z,0.73
2019-03-17T10:14:54.836Z,0.60
2019-03-17T10:17:21.012Z,0.60
2019-03-17T10:19:47.183Z,0.50
2019-03-17T10:22:13.408Z,0.50
2019-03-17T10:24:40.148Z,0.60
2019-03-17T10:27:06.305Z,0.50
2019-03-17T10:29:32.452Z,0.50
2019-03-17T10:31:58.885Z,0.50
2019-03-17T10:34:25.300Z,0.67
2019-03-17T10:36:51.836Z,0.67
2019-03-17T10:39:20.492Z,0.50
2019-03-17T10:41:46.994Z,0.70
2019-03-17T10:44:13.175Z,0.70
2019-03-17T10:46:39.350Z,0.53
2019-03-17T10:49:05.524Z,0.60
2019-03-17T10:51:31.754Z,0.80
2019-03-17T10:53:57.910Z,0.60
2019-03-17T10:56:24.121Z,0.50
2019-03-17T10:58:50.269Z,0.70
2019-03-17T11:01:16.461Z,0.60
2019-03-17T11:03:42.630Z,0.60
2019-03-17T11:06:08.889Z,0.70
2019-03-17T11:08:37.090Z,0.57
2019-03-17T11:11:16.889Z,0.50
2019-03-17T11:13:43.366Z,0.47
2019-03-17T11:16:11.421Z,0.60
2019-03-17T11:18:40.885Z,0.70
2019-03-17T11:21:07.164Z,0.50
2019-03-17T11:23:33.355Z,0.60
2019-03-17T11:25:59.615Z,0.73
2019-03-17T11:28:25.838Z,0.60
2019-03-17T11:30:59.391Z,0.50
2019-03-17T11:33:25.760Z,0.60
2019-03-17T11:35:51.892Z,0.60
2019-03-17T11:38:18.077Z,0.60
2019-03-17T11:40:44.529Z,0.50
2019-03-17T11:43:10.730Z,0.53
2019-03-17T11:45:37.262Z,0.60
2019-03-17T11:48:09.295Z,0.77
2019-03-17T11:50:35.438Z,0.90
2019-03-17T11:53:04.226Z,0.90
2019-03-17T11:55:31.852Z,0.77
2019-03-17T11:58:01.380Z,0.70
2019-03-17T12:00:31.330Z,0.73
2019-03-17T12:02:57.513Z,0.80
2019-03-17T12:05:23.651Z,0.77
2019-03-17T12:07:49.834Z,0.90
2019-03-17T12:10:21.555Z,1.17
2019-03-17T12:12:48.001Z,1.30
2019-03-17T12:15:29.704Z,1.40
2019-03-17T12:17:55.870Z,1.10
2019-03-17T12:20:23.996Z,1.03
2019-03-17T12:22:50.184Z,0.97
2019-03-17T12:25:17.614Z,1.40
2019-03-17T12:27:43.825Z,1.40
2019-03-17T12:30:25.356Z,0.97
2019-03-17T12:32:52.824Z,1.20
2019-03-17T12:35:19.061Z,1.10
2019-03-17T12:37:45.457Z,0.97
2019-03-17T12:40:11.710Z,0.90
2019-03-17T12:42:38.130Z,1.20
2019-03-17T12:45:06.695Z,1.13
2019-03-17T12:47:32.838Z,1.00
2019-03-17T12:49:59.300Z,1.37
2019-03-17T12:52:25.490Z,1.43
2019-03-17T12:54:51.758Z,1.80
2019-03-17T12:57:18.005Z,1.80
2019-03-17T12:59:44.163Z,1.07
2019-03-17T13:02:10.664Z,1.50
2019-03-17T13:04:36.837Z,1.13
2019-03-17T13:07:03.395Z,1.00
2019-03-17T13:09:29.514Z,1.17
2019-03-17T13:11:55.758Z,1.03
2019-03-17T13:14:21.942Z,1.20
2019-03-17T13:16:55.256Z,0.63
2019-03-17T13:19:21.478Z,1.10
2019-03-17T13:21:48.021Z,1.00
2019-03-17T13:24:14.187Z,0.90
2019-03-17T13:26:40.361Z,1.20
2019-03-17T13:29:06.557Z,0.67
2019-03-17T13:31:39.174Z,0.90
2019-03-17T13:34:11.795Z,0.80
2019-03-17T13:36:37.983Z,0.80
2019-03-17T13:39:10.706Z,0.80
2019-03-17T13:41:36.889Z,1.00
2019-03-17T13:44:10.308Z,0.70
2019-03-17T13:46:36.457Z,0.80
2019-03-17T13:49:02.581Z,0.80
2019-03-17T13:51:28.755Z,0.80
2019-03-17T13:53:54.922Z,1.10
2019-03-17T13:56:21.161Z,0.80
2019-03-17T13:58:47.351Z,1.37
2019-03-17T14:01:13.886Z,0.70
2019-03-17T14:03:40.635Z,0.70
2019-03-17T14:06:06.777Z,0.80
2019-03-17T14:08:32.976Z,0.60
2019-03-17T14:10:59.123Z,0.50
2019-03-17T14:13:25.342Z,0.90
2019-03-17T14:15:51.543Z,0.97
2019-03-17T14:18:17.699Z,0.80
2019-03-17T14:20:44.270Z,0.90
2019-03-17T14:23:10.426Z,1.10
2019-03-17T14:25:37.017Z,0.70
2019-03-17T14:28:03.197Z,0.67
2019-03-17T14:30:29.488Z,1.33
2019-03-17T14:32:55.656Z,0.90
2019-03-17T14:35:22.171Z,0.60
2019-03-17T14:37:48.290Z,0.77
2019-03-17T14:40:15.482Z,0.73
2019-03-17T14:42:43.572Z,0.80
2019-03-17T14:45:14.532Z,0.73
2019-03-17T14:47:40.687Z,0.80
2019-03-17T14:50:13.196Z,0.97
2019-03-17T14:52:39.335Z,0.80
2019-03-17T14:55:06.305Z,0.80
2019-03-17T14:57:32.444Z,0.80
2019-03-17T14:59:58.611Z,0.60
2019-03-17T15:02:24.780Z,0.90
2019-03-17T15:04:50.966Z,0.80
2019-03-17T15:07:17.460Z,0.80
2019-03-17T15:09:43.617Z,1.00
2019-03-17T15:12:09.787Z,0.73
2019-03-17T15:14:36.368Z,1.20
2019-03-17T15:17:02.511Z,0.70
2019-03-17T15:19:28.679Z,0.70
2019-03-17T15:21:54.879Z,0.70
2019-03-17T15:24:21.396Z,0.70
2019-03-17T15:26:47.580Z,0.80
2019-03-17T15:29:13.756Z,0.80
2019-03-17T15:31:39.977Z,0.90
2019-03-17T15:34:06.119Z,0.90
2019-03-17T15:36:32.320Z,0.60
2019-03-17T15:38:58.490Z,0.93
2019-03-17T15:41:24.944Z,0.60
2019-03-17T15:43:51.073Z,0.80
2019-03-17T15:46:17.509Z,0.60
2019-03-17T15:48:43.950Z,0.67
2019-03-17T15:51:19.510Z,0.53
2019-03-17T15:53:38.215Z,0.50
2019-03-17T15:56:04.385Z,0.50
2019-03-17T15:58:31.245Z,0.33
2019-03-17T16:00:57.788Z,0.47
2019-03-17T16:03:23.933Z,0.40
2019-03-17T16:05:50.096Z,0.40
2019-03-17T16:08:16.256Z,0.30
2019-03-17T16:10:42.430Z,0.43
2019-03-17T16:13:08.566Z,0.33
2019-03-17T16:15:34.747Z,0.43
2019-03-17T16:18:00.904Z,0.50
2019-03-17T16:20:27.339Z,0.43
2019-03-17T16:22:53.486Z,0.30
2019-03-17T16:25:24.996Z,0.57
2019-03-17T16:27:51.229Z,0.50
2019-03-17T16:30:22.242Z,0.40
2019-03-17T16:32:48.478Z,0.43
2019-03-17T16:35:14.843Z,0.50
2019-03-17T16:37:41.000Z,0.47
2019-03-17T16:40:38.270Z,0.50
2019-03-17T16:43:04.525Z,0.50
2019-03-17T16:45:30.703Z,0.40
2019-03-17T16:47:56.946Z,0.50
2019-03-17T16:50:23.323Z,0.40
2019-03-17T16:52:49.451Z,0.70
2019-03-17T16:55:15.913Z,0.60
2019-03-17T16:57:42.140Z,0.60
2019-03-17T17:00:19.122Z,0.77
2019-03-17T17:02:46.306Z,0.67
2019-03-17T17:05:14.754Z,0.70
2019-03-17T17:07:41.179Z,0.67
2019-03-17T17:10:22.028Z,0.60
2019-03-17T17:12:48.196Z,0.50
2019-03-17T17:15:27.188Z,0.50
2019-03-17T17:17:53.332Z,0.60
2019-03-17T17:20:24.412Z,0.50
2019-03-17T17:22:51.190Z,0.70
2019-03-17T17:25:17.677Z,0.50
2019-03-17T17:27:43.839Z,0.50
2019-03-17T17:30:13.577Z,0.60
2019-03-17T17:32:39.933Z,0.50
2019-03-17T17:35:06.315Z,0.60
2019-03-17T17:37:32.903Z,0.60
2019-03-17T17:39:59.070Z,0.60
2019-03-17T17:42:25.303Z,0.53
2019-03-17T17:44:51.441Z,0.60
2019-03-17T17:47:17.604Z,0.77
2019-03-17T17:49:43.807Z,0.50
2019-03-17T17:52:10.007Z,0.43
2019-03-17T17:54:36.143Z,0.50
2019-03-17T17:57:02.728Z,0.50
2019-03-17T17:59:28.887Z,0.43
2019-03-17T18:01:55.059Z,0.80
2019-03-17T18:04:21.523Z,1.07
2019-03-17T18:06:47.683Z,3.87
2019-03-17T18:09:13.837Z,1.47
2019-03-17T18:11:46.243Z,0.90
2019-03-17T18:14:12.374Z,0.80
2019-03-17T18:16:41.105Z,1.00
2019-03-17T18:19:06.587Z,0.57
2019-03-17T18:21:32.756Z,0.50
2019-03-17T18:23:59.285Z,0.60
2019-03-17T18:26:25.742Z,0.50
2019-03-17T18:28:51.879Z,0.70
2019-03-17T18:31:18.401Z,0.90
2019-03-17T18:33:44.560Z,0.73
2019-03-17T18:36:10.763Z,0.97
2019-03-17T18:38:37.159Z,1.13
2019-03-17T18:41:03.285Z,0.70
2019-03-17T18:43:29.467Z,0.90
2019-03-17T18:45:55.606Z,0.80
2019-03-17T18:48:22.139Z,0.90
2019-03-17T18:50:48.300Z,0.90
2019-03-17T18:53:14.480Z,0.63
2019-03-17T18:55:40.610Z,0.50
2019-03-17T18:58:06.815Z,0.67
2019-03-17T19:00:32.955Z,0.70
2019-03-17T19:02:59.143Z,0.70
2019-03-17T19:05:25.305Z,0.80
2019-03-17T19:07:51.506Z,0.80
2019-03-17T19:10:19.165Z,0.77
2019-03-17T19:12:46.402Z,0.70
2019-03-17T19:15:20.261Z,0.50
2019-03-17T19:17:46.640Z,0.57
2019-03-17T19:20:14.679Z,0.80
2019-03-17T19:22:40.902Z,0.67
2019-03-17T19:25:13.603Z,0.50
2019-03-17T19:27:39.786Z,0.50
2019-03-17T19:30:13.232Z,0.60
2019-03-17T19:32:39.568Z,0.53
2019-03-17T19:35:06.519Z,0.70
2019-03-17T19:37:32.692Z,0.60
2019-03-17T19:40:00.957Z,0.60
2019-03-17T19:42:26.938Z,0.60
2019-03-17T19:44:53.315Z,0.70
2019-03-17T19:47:19.447Z,0.80
2019-03-17T19:49:46.231Z,0.60
2019-03-17T19:52:12.719Z,0.70
2019-03-17T19:54:38.877Z,0.70
2019-03-17T19:57:05.026Z,0.90
2019-03-17T19:59:31.198Z,0.70
2019-03-17T20:01:57.354Z,0.70
2019-03-17T20:04:31.033Z,0.80
2019-03-17T20:06:51.612Z,0.70
2019-03-17T20:09:18.074Z,0.63
2019-03-17T20:11:44.240Z,0.70
2019-03-17T20:14:10.425Z,0.73
2019-03-17T20:16:36.580Z,0.70
2019-03-17T20:19:02.762Z,0.70
2019-03-17T20:21:29.017Z,0.70
2019-03-17T20:23:55.222Z,0.90
2019-03-17T20:26:21.342Z,0.80
2019-03-17T20:28:47.546Z,0.70
2019-03-17T20:31:13.995Z,0.80
2019-03-17T20:33:40.150Z,0.90
2019-03-17T20:36:06.305Z,0.60
2019-03-17T20:38:32.791Z,0.70
2019-03-17T20:40:59.232Z,0.60
2019-03-17T20:43:34.780Z,0.70
2019-03-17T20:45:53.478Z,0.70
2019-03-17T20:48:19.756Z,0.70
2019-03-17T20:50:46.317Z,0.67
2019-03-17T20:53:12.781Z,0.60
2019-03-17T20:55:38.926Z,0.67
2019-03-17T20:58:05.442Z,0.70
2019-03-17T21:00:31.636Z,0.60
2019-03-17T21:02:57.783Z,0.77
2019-03-17T21:05:24.253Z,0.80
2019-03-17T21:07:50.410Z,0.70
2019-03-17T21:10:16.600Z,0.67
2019-03-17T21:12:42.735Z,0.60
2019-03-17T21:15:11.495Z,1.00
2019-03-17T21:17:37.740Z,0.80
2019-03-17T21:20:09.749Z,0.70
2019-03-17T21:22:35.906Z,0.80
2019-03-17T21:25:04.462Z,0.60
2019-03-17T21:27:30.702Z,0.80
2019-03-17T21:29:56.865Z,0.60
2019-03-17T21:32:23.108Z,0.70
2019-03-17T21:34:49.284Z,0.70
2019-03-17T21:37:15.441Z,0.60
2019-03-17T21:39:41.595Z,0.70
2019-03-17T21:42:07.743Z,0.80
2019-03-17T21:44:33.976Z,0.50
2019-03-17T21:47:00.112Z,0.60
2019-03-17T21:49:26.274Z,0.60
2019-03-17T21:51:52.415Z,0.63
2019-03-17T21:54:18.618Z,0.53
2019-03-17T21:56:44.725Z,0.70
2019-03-17T21:59:10.895Z,0.60
2019-03-17T22:01:37.042Z,0.60
2019-03-17T22:04:03.293Z,0.50
2019-03-17T22:06:29.462Z,0.70
2019-03-17T22:08:55.636Z,0.53
2019-03-17T22:11:21.790Z,0.60
2019-03-17T22:13:48.348Z,0.60
2019-03-17T22:16:14.491Z,0.80
2019-03-17T22:18:40.647Z,0.67
2019-03-17T22:21:06.833Z,0.60
2019-03-17T22:23:32.969Z,0.43
2019-03-17T22:25:59.417Z,0.70
2019-03-17T22:28:25.549Z,0.50
2019-03-17T22:30:51.735Z,0.57
2019-03-17T22:33:17.907Z,0.60
2019-03-17T22:35:44.082Z,0.70
2019-03-17T22:38:10.244Z,0.77
2019-03-17T22:40:36.819Z,0.57
2019-03-17T22:43:03.020Z,0.60
2019-03-17T22:45:29.201Z,0.67
2019-03-17T22:47:55.352Z,0.70
2019-03-17T22:50:21.532Z,0.83
2019-03-17T22:52:47.655Z,0.70
2019-03-17T22:55:13.946Z,0.70
2019-03-17T22:57:40.090Z,0.50
2019-03-17T23:00:35.206Z,1.10
2019-03-17T23:03:01.344Z,0.80
2019-03-17T23:05:27.528Z,0.60
2019-03-17T23:07:53.675Z,0.63
2019-03-17T23:10:19.847Z,0.60
2019-03-17T23:12:46.336Z,0.50
2019-03-17T23:15:12.776Z,0.60
2019-03-17T23:17:39.054Z,0.60
2019-03-17T23:20:13.333Z,0.60
2019-03-17T23:22:39.846Z,0.47
2019-03-17T23:25:08.670Z,0.60
2019-03-17T23:27:35.086Z,0.80
2019-03-17T23:30:01.236Z,0.60
2019-03-17T23:32:27.461Z,0.90
2019-03-17T23:34:53.617Z,0.60
2019-03-17T23:37:19.778Z,0.53
2019-03-17T23:39:45.920Z,0.60
2019-03-17T23:42:12.096Z,0.80
2019-03-17T23:44:48.428Z,0.60
2019-03-17T23:47:06.318Z,0.43
2019-03-17T23:49:32.447Z,0.77
2019-03-17T23:51:58.633Z,0.60
2019-03-17T23:54:24.785Z,0.77
2019-03-17T23:56:50.945Z,0.70
2019-03-17T23:59:17.097Z,0.50
